Meteo Giornale » Osservazioni meteo Gran Bretagna » Leeming

ore: 22:50 - Osservazioni Meteo Leeming
Lat. 54° 18' N Lon. 1° 32' W Alt. 40 metri s.l.m.

nuvoloso Europe/London

18 °C

Nuvoloso

Temp. 24 Ore

12 °C

26 °C

Nord

5.5 Km/h

Dew point 13 °C

Umidità 72 %

Visibilità  10 Km

Il sole sorge alle ore 04:50

Il sole tramonta alle ore 21:34

Data e Ora Cielo e Fenomeni T °C DP °C Um. % Pres. hPa Vis. km Vento km/h
Ieri h: 22:50 nuvoloso Nuvoloso 18 13 72 1014 10 N 5.5
Ieri h: 21:50 poco_nuvoloso Poco Nuvoloso 19 13 68 1013 10 O 11.1
Ieri h: 20:50 sereno Sereno 21 12 56 1013 10 O 16.7
Ieri h: 19:50 sereno Sereno 23 12 49 1013 10 O/NO 16.7
Ieri h: 18:50 poco_nuvoloso Poco Nuvoloso 24 11 43 1013 10 O 18.5
Ieri h: 17:50 nuvoloso Nuvoloso 25 11 41 1013 10 O 22.2
Ieri h: 16:50 molto_nuvoloso Molto Nuvoloso 26 11 39 1013 10 O/SO 13
Ieri h: 15:50 nuvoloso Nuvoloso 25 11 41 1013 10 SO 13
Ieri h: 13:50 sereno Sereno 26 10 36 1014 10 SO 16.7
Ieri h: 12:50 sereno Sereno 25 11 41 1014 10 SO 16.7
Ieri h: 11:50 poco_nuvoloso Poco Nuvoloso 24 12 47 1014 10 S/SO 13
Ieri h: 10:50 poco_nuvoloso Poco Nuvoloso 23 12 49 1015 10 N 5.5
Ieri h: 09:50 sereno Sereno 21 13 60 1015 10 N 5.5
Ieri h: 08:50 sereno Sereno 19 13 68 1016 10 N 3.7
Ieri h: 07:50 sereno Sereno 17 13 77 1016 10 N 3.7
Ieri h: 06:50 sereno Sereno 15 12 82 1016 10 N 3.7
Ieri h: 05:50 poco_nuvoloso Poco Nuvoloso 12 11 93 1016 10 N 3.7
Ieri h: 04:50 poco_nuvoloso Poco Nuvoloso 12 11 93 1016 10 N 3.7
Ieri h: 03:50 sereno Sereno 13 11 87 1016 10 N 3.7
Ieri h: 02:50 sereno Sereno 14 12 87 1016 10 N 3.7
Ieri h: 01:50 sereno Sereno 15 12 82 1016 10 N 5.5
Ieri h: 00:50 sereno Sereno 16 13 82 1016 10 N 3.7